• Join FlightAware (Why Join?)
  • Login
  • US Flag 
08:50AM EDT


 

Airport Tracker/Info


-or-


 

Live Flight TrackerFlight Track Log ✈ VP-BLX ✈ 28-Nov-2013 ✈ UUEE / SVO - KMIA

Flight Track Log - Related Links

Times and Time Zones

All times are in EST time to prevent confusion due to time zone crossing. See the VP-BLX flight status page for this flight to view local times or setup timezone preferences in your user account.

Time Position Orientation Groundspeed Altitude Reporting Facility
EST Latitude Longitude Course Direction KTS MPH feet Rate Location/Type
03:40AM 56.0751 37.4307 17° North  Level FlightAware Approximate
03:41AM 56.0883 37.3020 301° West  Level FlightAware Approximate
03:42AM 56.1557 37.1552 312° West  Level FlightAware Approximate
03:43AM 56.2104 36.9925 308° West  Level FlightAware Approximate
03:44AM 56.2754 36.8409 308° West  Level FlightAware Approximate
03:45AM 56.3382 36.6862 305° West  Level FlightAware Approximate
03:46AM 56.3996 36.5294 305° West  Level FlightAware Approximate
03:47AM 56.4616 36.3731 308° West  Level FlightAware Approximate
03:48AM 56.5269 36.2209 308° West  Level FlightAware Approximate
03:49AM 56.5882 36.0634 304° West  Level FlightAware Approximate
03:50AM 56.6474 35.9026 304° West  Level FlightAware Approximate
03:51AM 56.7108 35.7474 308° West  Level FlightAware Approximate
03:52AM 56.7763 35.5946 308° West  Level FlightAware Approximate
03:53AM 56.8398 35.4387 305° West  Level FlightAware Approximate
03:54AM 56.9001 35.2784 305° West  Level FlightAware Approximate
03:55AM 56.9602 35.1175 304° West  Level FlightAware Approximate
03:56AM 57.0202 34.9562 302° West  Level FlightAware Approximate
03:57AM 57.0758 34.7896 302° West  Level FlightAware Approximate
03:58AM 57.1338 34.6256 308° West  Level FlightAware Approximate
03:59AM 57.1986 34.4701 308° West  Level FlightAware Approximate
04:00AM 57.2574 34.3063 304° West  Level FlightAware Approximate
04:01AM 57.3163 34.1423 304° West  Level FlightAware Approximate
04:02AM 57.3753 33.9784 304° West  Level FlightAware Approximate
04:03AM 57.4342 33.8139 304° West  Level FlightAware Approximate
04:04AM 57.4928 33.6488 304° West  Level FlightAware Approximate
04:05AM 57.5512 33.4832 303° West  Level FlightAware Approximate
04:06AM 57.6094 33.3172 303° West  Level FlightAware Approximate
04:07AM 57.6674 33.1505 303° West  Level FlightAware Approximate
04:08AM 57.7251 32.9834 303° West  Level FlightAware Approximate
04:09AM 57.7826 32.8157 303° West  Level FlightAware Approximate
04:10AM 57.8399 32.6474 303° West  Level FlightAware Approximate
04:11AM 57.8970 32.4787 303° West  Level FlightAware Approximate
04:12AM 57.9539 32.3094 302° West  Level FlightAware Approximate
04:13AM 58.0105 32.1395 302° West  Level FlightAware Approximate
04:14AM 58.0669 31.9691 302° West  Level FlightAware Approximate
04:15AM 58.1231 31.7982 302° West  Level FlightAware Approximate
04:16AM 58.1791 31.6268 302° West  Level FlightAware Approximate
04:17AM 58.2348 31.4548 302° West  Level FlightAware Approximate
04:18AM 58.2903 31.2823 302° West  Level FlightAware Approximate
04:19AM 58.3455 31.1092 301° West  Level FlightAware Approximate
04:20AM 58.4005 30.9356 301° West  Level FlightAware Approximate
04:21AM 58.4553 30.7614 301° West  Level FlightAware Approximate
04:22AM 58.5099 30.5867 301° West  Level FlightAware Approximate
04:23AM 58.5642 30.4115 301° West  Level FlightAware Approximate
04:24AM 58.6183 30.2357 301° West  Level FlightAware Approximate
04:25AM 58.6721 30.0594 300° West  Level FlightAware Approximate
04:26AM 58.7257 29.8825 300° West  Level FlightAware Approximate
04:27AM 58.7790 29.7051 300° West  Level FlightAware Approximate
04:28AM 58.8321 29.5271 300° West  Level FlightAware Approximate
04:29AM 58.8850 29.3486 300° West  Level FlightAware Approximate
04:30AM 58.9376 29.1696 300° West  Level FlightAware Approximate
04:31AM 58.9899 28.9900 300° West  Level FlightAware Approximate
04:32AM 59.0421 28.8098 299° West  Level FlightAware Approximate
04:33AM 59.0939 28.6291 299° West  Level FlightAware Approximate
04:34AM 59.1455 28.4479 299° West  Level FlightAware Approximate
04:35AM 59.1969 28.2661 299° West  Level FlightAware Approximate
04:36AM 59.2480 28.0838 299° West  Level FlightAware Approximate
04:37AM 59.2988 27.9009 299° West  Level FlightAware Approximate
04:38AM 59.3494 27.7175 298° West  Level FlightAware Approximate
04:39AM 59.3998 27.5336 298° West  Level FlightAware Approximate
04:40AM 59.4498 27.3491 298° West  Level FlightAware Approximate
04:41AM 59.4996 27.1640 298° West  Level FlightAware Approximate
04:42AM 59.5492 26.9784 298° West  Level FlightAware Approximate
04:43AM 59.5985 26.7922 298° West  Level FlightAware Approximate
04:44AM 59.6475 26.6056 298° West  Level FlightAware Approximate
04:45AM 59.6962 26.4183 297° West  Level FlightAware Approximate
04:46AM 59.7447 26.2305 297° West  Level FlightAware Approximate
04:47AM 59.7929 26.0422 297° West  Level FlightAware Approximate
04:48AM 59.8409 25.8533 297° West  Level FlightAware Approximate
04:49AM 59.8886 25.6639 297° West  Level FlightAware Approximate
04:50AM 59.9360 25.4740 297° West  Level FlightAware Approximate
04:51AM 59.9831 25.2835 296° West  Level FlightAware Approximate
04:52AM 60.0300 25.0924 296° West  Level FlightAware Approximate
04:53AM 60.0765 24.9009 296° West  Level FlightAware Approximate
04:54AM 60.1228 24.7087 296° West  Level FlightAware Approximate
04:55AM 60.1689 24.5161 296° West  Level FlightAware Approximate
04:56AM 60.2146 24.3229 296° West  Level FlightAware Approximate
04:57AM 60.2601 24.1292 295° West  Level FlightAware Approximate
04:58AM 60.3052 23.9349 295° West  Level FlightAware Approximate
04:59AM 60.3501 23.7401 295° West  Level FlightAware Approximate
05:00AM 60.3947 23.5447 295° West  Level FlightAware Approximate
05:01AM 60.4391 23.3489 295° West  Level FlightAware Approximate
05:02AM 60.4831 23.1524 295° West  Level FlightAware Approximate
05:03AM 60.5268 22.9555 294° West  Level FlightAware Approximate
05:04AM 60.5703 22.7580 294° West  Level FlightAware Approximate
05:05AM 60.6134 22.5600 294° West  Level FlightAware Approximate
05:06AM 60.6563 22.3615 294° West  Level FlightAware Approximate
05:07AM 60.6989 22.1624 294° West  Level FlightAware Approximate
05:08AM 60.7412 21.9628 294° West  Level FlightAware Approximate
05:09AM 60.7831 21.7627 293° West  Level FlightAware Approximate
05:10AM 60.8248 21.5621 293° West  Level FlightAware Approximate
05:11AM 60.8662 21.3609 293° West  Level FlightAware Approximate
05:12AM 60.9073 21.1593 293° West  Level FlightAware Approximate
05:13AM 60.9481 20.9571 293° West  Level FlightAware Approximate
05:14AM 60.9885 20.7544 292° West  Level FlightAware Approximate
05:15AM 61.0287 20.5511 292° West  Level FlightAware Approximate
05:16AM 61.0686 20.3474 292° West  Level FlightAware Approximate
05:17AM 61.1081 20.1431 292° West  Level FlightAware Approximate
05:18AM 61.1474 19.9384 292° West  Level FlightAware Approximate
05:19AM 61.1863 19.7331 292° West  Level FlightAware Approximate
05:20AM 61.2249 19.5273 291° West  Level FlightAware Approximate
05:21AM 61.2632 19.3210 291° West  Level FlightAware Approximate
05:22AM 61.3012 19.1143 291° West  Level FlightAware Approximate
05:23AM 61.3389 18.9070 291° West  Level FlightAware Approximate
05:24AM 61.3763 18.6992 291° West  Level FlightAware Approximate
05:25AM 61.4133 18.4909 290° West  Level FlightAware Approximate
05:26AM 61.4501 18.2822 290° West  Level FlightAware Approximate
05:27AM 61.4865 18.0729 290° West  Level FlightAware Approximate
05:28AM 61.5226 17.8632 290° West  Level FlightAware Approximate
05:29AM 61.5583 17.6529 290° West  Level FlightAware Approximate
05:30AM 61.5938 17.4422 290° West  Level FlightAware Approximate
05:31AM 61.6289 17.2310 289° West  Level FlightAware Approximate
05:32AM 61.6637 17.0194 289° West  Level FlightAware Approximate
05:33AM 61.6982 16.8072 289° West  Level FlightAware Approximate
05:34AM 61.7323 16.5946 289° West  Level FlightAware Approximate
05:35AM 61.7661 16.3815 289° West  Level FlightAware Approximate
05:36AM 61.7996 16.1680 288° West  Level FlightAware Approximate
05:37AM 61.8327 15.9539 288° West  Level FlightAware Approximate
05:38AM 61.8655 15.7395 288° West  Level FlightAware Approximate
05:39AM 61.8980 15.5245 288° West  Level FlightAware Approximate
05:40AM 61.9301 15.3091 288° West  Level FlightAware Approximate
05:41AM 61.9619 15.0933 287° West  Level FlightAware Approximate
05:42AM 61.9934 14.8770 287° West  Level FlightAware Approximate
05:43AM 62.0245 14.6603 287° West  Level FlightAware Approximate
05:44AM 62.0553 14.4431 287° West  Level FlightAware Approximate
05:45AM 62.0857 14.2255 287° West  Level FlightAware Approximate
05:46AM 62.1158 14.0075 287° West  Level FlightAware Approximate
05:47AM 62.1456 13.7890 286° West  Level FlightAware Approximate
05:48AM 62.1750 13.5701 286° West  Level FlightAware Approximate
05:49AM 62.2041 13.3507 286° West  Level FlightAware Approximate
05:50AM 62.2328 13.1310 286° West  Level FlightAware Approximate
05:51AM 62.2612 12.9108 286° West  Level FlightAware Approximate
05:52AM 62.2892 12.6903 285° West  Level FlightAware Approximate
05:53AM 62.3168 12.4693 285° West  Level FlightAware Approximate
05:54AM 62.3442 12.2479 285° West  Level FlightAware Approximate
05:55AM 62.3711 12.0261 285° West  Level FlightAware Approximate
05:56AM 62.3978 11.8039 285° West  Level FlightAware Approximate
05:57AM 62.4240 11.5813 284° West  Level FlightAware Approximate
05:58AM 62.4499 11.3583 284° West  Level FlightAware Approximate
05:59AM 62.4755 11.1350 284° West  Level FlightAware Approximate
06:00AM 62.5006 10.9113 284° West  Level FlightAware Approximate
06:01AM 62.5255 10.6872 284° West  Level FlightAware Approximate
06:02AM 62.5499 10.4627 283° West  Level FlightAware Approximate
06:03AM 62.5741 10.2378 283° West  Level FlightAware Approximate
06:04AM 62.5978 10.0126 283° West  Level FlightAware Approximate
06:05AM 62.6212 9.7870 283° West  Level FlightAware Approximate
06:06AM 62.6442 9.5611 283° West  Level FlightAware Approximate
06:07AM 62.6669 9.3349 282° West  Level FlightAware Approximate
06:08AM 62.6892 9.1082 282° West  Level FlightAware Approximate
06:09AM 62.7111 8.8813 282° West  Level FlightAware Approximate
06:10AM 62.7327 8.6540 282° West  Level FlightAware Approximate
06:11AM 62.7539 8.4264 282° West  Level FlightAware Approximate
06:12AM 62.7747 8.1985 281° West  Level FlightAware Approximate
06:13AM 62.7952 7.9702 281° West  Level FlightAware Approximate
06:14AM 62.8153 7.7416 281° West  Level FlightAware Approximate
06:15AM 62.8350 7.5128 281° West  Level FlightAware Approximate
06:16AM 62.8543 7.2836 281° West  Level FlightAware Approximate
06:17AM 62.8733 7.0541 280° West  Level FlightAware Approximate
06:18AM 62.8919 6.8243 280° West  Level FlightAware Approximate
06:19AM 62.9101 6.5942 280° West  Level FlightAware Approximate
06:20AM 62.9280 6.3639 280° West  Level FlightAware Approximate
06:21AM 62.9454 6.1333 280° West  Level FlightAware Approximate
06:22AM 62.9625 5.9023 279° West  Level FlightAware Approximate
06:23AM 62.9793 5.6712 279° West  Level FlightAware Approximate
06:24AM 62.9956 5.4398 279° West  Level FlightAware Approximate
06:25AM 63.0116 5.2081 279° West  Level FlightAware Approximate
06:26AM 63.0271 4.9761 279° West  Level FlightAware Approximate
06:27AM 63.0423 4.7439 278° West  Level FlightAware Approximate
06:28AM 63.0572 4.5115 278° West  Level FlightAware Approximate
06:29AM 63.0716 4.2789 278° West  Level FlightAware Approximate
06:30AM 63.0857 4.0460 278° West  Level FlightAware Approximate
06:31AM 63.0993 3.8129 277° West  Level FlightAware Approximate
06:32AM 63.1126 3.5796 277° West  Level FlightAware Approximate
06:33AM 63.1255 3.3460 277° West  Level FlightAware Approximate
06:34AM 63.1381 3.1123 277° West  Level FlightAware Approximate
06:35AM 63.1502 2.8784 277° West  Level FlightAware Approximate
06:36AM 63.1620 2.6442 276° West  Level FlightAware Approximate
06:37AM 63.1733 2.4099 276° West  Level FlightAware Approximate
06:38AM 63.1843 2.1754 276° West  Level FlightAware Approximate
06:39AM 63.1949 1.9407 276° West  Level FlightAware Approximate
06:40AM 63.2051 1.7059 276° West  Level FlightAware Approximate
06:41AM 63.2150 1.4709 275° West  Level FlightAware Approximate
06:42AM 63.2244 1.2357 275° West  Level FlightAware Approximate
06:43AM 63.2335 1.0004 275° West  Level FlightAware Approximate
06:44AM 63.2421 0.7650 275° West  Level FlightAware Approximate
06:45AM 63.2504 0.5294 275° West  Level FlightAware Approximate
06:46AM 63.2583 0.2937 274° West  Level FlightAware Approximate
06:47AM 63.2658 0.0578 274° West  Level FlightAware Approximate
06:48AM 63.2729 -0.1782 274° West  Level FlightAware Approximate
06:49AM 63.2796 -0.4142 274° West  Level FlightAware Approximate
06:50AM 63.2859 -0.6504 274° West  Level FlightAware Approximate
06:51AM 63.2918 -0.8867 273° West  Level FlightAware Approximate
06:52AM 63.2974 -1.1231 273° West  Level FlightAware Approximate
06:53AM 63.3025 -1.3596 273° West  Level FlightAware Approximate
06:54AM 63.3072 -1.5961 273° West  Level FlightAware Approximate
06:55AM 63.3116 -1.8327 272° West  Level FlightAware Approximate
06:56AM 63.3156 -2.0694 272° West  Level FlightAware Approximate
06:57AM 63.3191 -2.3062 272° West  Level FlightAware Approximate
06:58AM 63.3223 -2.5430 272° West  Level FlightAware Approximate
06:59AM 63.3251 -2.7799 272° West  Level FlightAware Approximate
07:00AM 63.3275 -3.0168 271° West  Level FlightAware Approximate
07:01AM 63.3295 -3.2537 271° West  Level FlightAware Approximate
07:02AM 63.3311 -3.4907 271° West  Level FlightAware Approximate
07:03AM 63.3324 -3.7277 271° West  Level FlightAware Approximate
07:04AM 63.3332 -3.9647 271° West  Level FlightAware Approximate
07:05AM 63.3336 -4.2017 270° West  Level FlightAware Approximate
07:06AM 63.3336 -4.4387 270° West  Level FlightAware Approximate
07:07AM 63.3333 -4.6757 270° West  Level FlightAware Approximate
07:08AM 63.3326 -4.9127 270° West  Level FlightAware Approximate
07:09AM 63.3314 -5.1498 269° West  Level FlightAware Approximate
07:10AM 63.3299 -5.3867 269° West  Level FlightAware Approximate
07:11AM 63.3279 -5.6237 269° West  Level FlightAware Approximate
07:12AM 63.3256 -5.8606 269° West  Level FlightAware Approximate
07:13AM 63.3229 -6.0975 269° West  Level FlightAware Approximate
07:14AM 63.3198 -6.3343 268° West  Level FlightAware Approximate
07:15AM 63.3163 -6.5711 268° West  Level FlightAware Approximate
07:16AM 63.3124 -6.8078 268° West  Level FlightAware Approximate
07:17AM 63.3081 -7.0444 268° West  Level FlightAware Approximate
07:18AM 63.3035 -7.2810 268° West  Level FlightAware Approximate
07:19AM 63.2984 -7.5175 267° West  Level FlightAware Approximate
07:20AM 63.2929 -7.7539 267° West  Level FlightAware Approximate
07:21AM 63.2871 -7.9902 267° West  Level FlightAware Approximate
07:22AM 63.2808 -8.2264 267° West  Level FlightAware Approximate
07:23AM 63.2742 -8.4625 267° West  Level FlightAware Approximate
07:24AM 63.2672 -8.6985 266° West  Level FlightAware Approximate
07:25AM 63.2598 -8.9343 266° West  Level FlightAware Approximate
07:26AM 63.2520 -9.1701 266° West  Level FlightAware Approximate
07:27AM 63.2438 -9.4057 266° West  Level FlightAware Approximate
07:28AM 63.2352 -9.6412 265° West  Level FlightAware Approximate
07:29AM 63.2262 -9.8765 265° West  Level FlightAware Approximate
07:30AM 63.2169 -10.1117 265° West  Level FlightAware Approximate
07:31AM 63.2071 -10.3467 265° West  Level FlightAware Approximate
07:32AM 63.1969 -10.5816 265° West  Level FlightAware Approximate
07:33AM 63.1864 -10.8163 264° West  Level FlightAware Approximate
07:34AM 63.1754 -11.0508 264° West  Level FlightAware Approximate
07:35AM 63.1641 -11.2852 264° West  Level FlightAware Approximate
07:36AM 63.1524 -11.5193 264° West  Level FlightAware Approximate
07:37AM 63.1403 -11.7533 264° West  Level FlightAware Approximate
07:38AM 63.1278 -11.9871 263° West  Level FlightAware Approximate
07:39AM 63.1150 -12.2206 263° West  Level FlightAware Approximate
07:40AM 63.1017 -12.4540 263° West  Level FlightAware Approximate
07:41AM 63.0881 -12.6871 263° West  Level FlightAware Approximate
07:42AM 63.0741 -12.9200 263° West  Level FlightAware Approximate
07:43AM 63.0597 -13.1527 262° West  Level FlightAware Approximate
07:44AM 63.0449 -13.3852 262° West  Level FlightAware Approximate
07:45AM 63.0298 -13.6174 262° West  Level FlightAware Approximate
07:46AM 63.0142 -13.8494 262° West  Level FlightAware Approximate
07:47AM 62.9983 -14.0811 261° West  Level FlightAware Approximate
07:48AM 62.9820 -14.3126 261° West  Level FlightAware Approximate
07:49AM 62.9653 -14.5438 261° West  Level FlightAware Approximate
07:50AM 62.9483 -14.7747 261° West  Level FlightAware Approximate
07:51AM 62.9309 -15.0054 261° West  Level FlightAware Approximate
07:52AM 62.9131 -15.2358 260° West  Level FlightAware Approximate
07:53AM 62.8949 -15.4659 260° West  Level FlightAware Approximate
07:54AM 62.8763 -15.6957 260° West  Level FlightAware Approximate
07:55AM 62.8574 -15.9252 260° West  Level FlightAware Approximate
07:56AM 62.8381 -16.1545 260° West  Level FlightAware Approximate
07:57AM 62.8184 -16.3834 259° West  Level FlightAware Approximate
07:58AM 62.7984 -16.6120 259° West  Level FlightAware Approximate
07:59AM 62.7780 -16.8403 259° West  Level FlightAware Approximate
08:00AM 62.7572 -17.0683 259° West  Level FlightAware Approximate
08:01AM 62.7360 -17.2960 259° West  Level FlightAware Approximate
08:02AM 62.7145 -17.5233 258° West  Level FlightAware Approximate
08:03AM 62.6926 -17.7503 258° West  Level FlightAware Approximate
08:04AM 62.6704 -17.9769 258° West  Level FlightAware Approximate
08:05AM 62.6478 -18.2033 258° West  Level FlightAware Approximate
08:06AM 62.6248 -18.4292 258° West  Level FlightAware Approximate
08:07AM 62.6015 -18.6549 257° West  Level FlightAware Approximate
08:08AM 62.5778 -18.8801 257° West  Level FlightAware Approximate
08:09AM 62.5537 -19.1050 257° West  Level FlightAware Approximate
08:10AM 62.5293 -19.3295 257° West  Level FlightAware Approximate
08:11AM 62.5045 -19.5537 257° West  Level FlightAware Approximate
08:12AM 62.4793 -19.7775 256° West  Level FlightAware Approximate
08:13AM 62.4538 -20.0009 256° West  Level FlightAware Approximate
08:14AM 62.4280 -20.2239 256° West  Level FlightAware Approximate
08:15AM 62.4017 -20.4466 256° West  Level FlightAware Approximate
08:16AM 62.3752 -20.6688 256° West  Level FlightAware Approximate
08:17AM 62.3483 -20.8906 255° West  Level FlightAware Approximate
08:18AM 62.3210 -21.1121 255° West  Level FlightAware Approximate
08:19AM 62.2933 -21.3331 255° West  Level FlightAware Approximate
08:20AM 62.2654 -21.5538 255° West  Level FlightAware Approximate
08:21AM 62.2370 -21.7740 255° West  Level FlightAware Approximate
08:22AM 62.2084 -21.9938 254° West  Level FlightAware Approximate
08:23AM 62.1793 -22.2132 254° West  Level FlightAware Approximate
08:24AM 62.1500 -22.4321 254° West  Level FlightAware Approximate
08:25AM 62.1203 -22.6507 254° West  Level FlightAware Approximate
08:26AM 62.0902 -22.8688 254° West  Level FlightAware Approximate
08:27AM 62.0598 -23.0865 253° West  Level FlightAware Approximate
08:28AM 62.0291 -23.3037 253° West  Level FlightAware Approximate
08:29AM 61.9980 -23.5205 253° West  Level FlightAware Approximate
08:30AM 61.9666 -23.7368 253° West  Level FlightAware Approximate
08:31AM 61.9348 -23.9527 253° West  Level FlightAware Approximate
08:32AM 61.9027 -24.1682 253° West  Level FlightAware Approximate
08:33AM 61.8703 -24.3832 252° West  Level FlightAware Approximate
08:34AM 61.8375 -24.5977 252° West  Level FlightAware Approximate
08:35AM 61.8044 -24.8118 252° West  Level FlightAware Approximate
08:36AM 61.7710 -25.0254 252° West  Level FlightAware Approximate
08:37AM 61.7372 -25.2386 252° West  Level FlightAware Approximate
08:38AM 61.7031 -25.4513 251° West  Level FlightAware Approximate
08:39AM 61.6687 -25.6635 251° West  Level FlightAware Approximate
08:40AM 61.6351 -25.8684 251° West  Level Estimated
08:41AM 61.6012 -26.0729 251° West  Level Estimated
08:42AM 61.5670 -26.2769 251° West  Level Estimated
08:43AM 61.5324 -26.4805 250° West  Level Estimated
08:44AM 61.4976 -26.6836 250° West  Level Estimated
08:45AM 61.4625 -26.8863 250° West  Level Estimated
08:46AM 61.4271 -27.0885 250° West  Level Estimated
08:47AM 61.3913 -27.2902 250° West  Level Estimated
08:48AM 61.3553 -27.4915 250° West  Level Estimated
08:49AM 61.3190 -27.6924 249° West  Level Estimated
08:50AM 61.2824 -27.8927 249° West  Level Estimated
08:51AM 61.2455 -28.0926 249° West  Level Estimated
08:52AM 61.2083 -28.2920 249° West  Level Estimated
08:53AM 61.1708 -28.4910 249° West  Level Estimated
08:54AM 61.1330 -28.6894 249° West  Level Estimated
08:55AM 61.0949 -28.8874 248° West  Level Estimated
08:56AM 61.0565 -29.0849 248° West  Level Estimated
08:57AM 61.0179 -29.2820 248° West  Level Estimated
08:58AM 60.9789 -29.4785 248° West  Level Estimated
08:59AM 60.9397 -29.6746 248° West  Level Estimated
09:00AM 60.9002 -29.8702 248° West  Level Estimated
09:01AM 60.8604 -30.0653 247° West  Level Estimated
09:02AM 60.8204 -30.2599 247° West  Level Estimated
09:03AM 60.7800 -30.4540 247° West  Level Estimated
09:04AM 60.7394 -30.6477 247° West  Level Estimated
09:05AM 60.6985 -30.8408 247° West  Level Estimated
09:06AM 60.6573 -31.0335 246° West  Level Estimated
09:07AM 60.6158 -31.2256 246° West  Level Estimated
09:08AM 60.5741 -31.4173 246° West  Level Estimated
09:09AM 60.5321 -31.6085 246° West  Level Estimated
09:10AM 60.4898 -31.7991 246° West  Level Estimated
09:11AM 60.4472 -31.9893 246° West  Level Estimated
09:12AM 60.4044 -32.1790 245° Southwest  Level Estimated
09:13AM 60.3613 -32.3681 245° Southwest  Level Estimated
09:14AM 60.3179 -32.5568 245° Southwest  Level Estimated
09:15AM 60.2743 -32.7450 245° Southwest  Level Estimated
09:16AM 60.2304 -32.9327 245° Southwest  Level Estimated
09:17AM 60.1862 -33.1198 245° Southwest  Level Estimated
09:18AM 60.1418 -33.3065 245° Southwest  Level Estimated
09:19AM 60.0971 -33.4926 244° Southwest  Level Estimated
09:20AM 60.0522 -33.6783 244° Southwest  Level Estimated
09:21AM 60.0070 -33.8634 244° Southwest  Level Estimated
09:22AM 59.9615 -34.0480 244° Southwest  Level Estimated
09:23AM 59.9158 -34.2322 244° Southwest  Level Estimated
09:24AM 59.8698 -34.4158 244° Southwest  Level Estimated
09:25AM 59.8236 -34.5989 243° Southwest  Level Estimated
09:26AM 59.7771 -34.7815 243° Southwest  Level Estimated
09:27AM 59.7303 -34.9636 243° Southwest  Level Estimated
09:28AM 59.6833 -35.1452 243° Southwest  Level Estimated
09:29AM 59.6361 -35.3262 243° Southwest  Level Estimated
09:30AM 59.5886 -35.5068 243° Southwest  Level Estimated
09:31AM 59.5409 -35.6869 242° Southwest  Level Estimated
09:32AM 59.4929 -35.8664 242° Southwest  Level Estimated
09:33AM 59.4447 -36.0454 242° Southwest  Level Estimated
09:34AM 59.3962 -36.2239 242° Southwest  Level Estimated
09:35AM 59.3475 -36.4020 242° Southwest  Level Estimated
09:36AM 59.2985 -36.5795 242° Southwest  Level Estimated
09:37AM 59.2493 -36.7565 242° Southwest  Level Estimated
09:38AM 59.1999 -36.9329 241° Southwest  Level Estimated
09:39AM 59.1502 -37.1089 241° Southwest  Level Estimated
09:40AM 59.1003 -37.2843 241° Southwest  Level Estimated
09:41AM 59.0501 -37.4593 241° Southwest  Level Estimated
09:42AM 58.9998 -37.6337 241° Southwest  Level Estimated
09:43AM 58.9491 -37.8076 241° Southwest  Level Estimated
09:44AM 58.8983 -37.9810 240° Southwest  Level Estimated
09:45AM 58.8472 -38.1539 240° Southwest  Level Estimated
09:46AM 58.7959 -38.3263 240° Southwest  Level Estimated
09:47AM 58.7444 -38.4982 240° Southwest  Level Estimated
09:48AM 58.6926 -38.6696 240° Southwest  Level Estimated
09:49AM 58.6406 -38.8404 240° Southwest  Level Estimated
09:50AM 58.5884 -39.0108 240° Southwest  Level Estimated
09:51AM 58.5359 -39.1806 239° Southwest  Level Estimated
09:52AM 58.4832 -39.3499 239° Southwest  Level Estimated
09:53AM 58.4304 -39.5188 239° Southwest  Level Estimated
09:54AM 58.3773 -39.6871 239° Southwest  Level Estimated
09:55AM 58.3239 -39.8549 239° Southwest  Level Estimated
09:56AM 58.2704 -40.0222 239° Southwest  Level Estimated
09:57AM 58.2166 -40.1890 239° Southwest  Level Estimated
09:58AM 58.1626 -40.3553 238° Southwest  Level Estimated
09:59AM 58.1084 -40.5211 238° Southwest  Level Estimated
10:00AM 58.0540 -40.6864 238° Southwest  Level Estimated
10:01AM 57.9994 -40.8511 238° Southwest  Level Estimated
10:02AM 57.9445 -41.0154 238° Southwest  Level Estimated
10:03AM 57.8895 -41.1792 238° Southwest  Level Estimated
10:04AM 57.8342 -41.3424 238° Southwest  Level Estimated
10:05AM 57.7787 -41.5052 237° Southwest  Level Estimated
10:06AM 57.7231 -41.6675 237° Southwest  Level Estimated
10:07AM 57.6672 -41.8293 237° Southwest  Level Estimated
10:08AM 57.6111 -41.9905 237° Southwest  Level Estimated
10:09AM 57.5548 -42.1513 237° Southwest  Level Estimated
10:10AM 57.4983 -42.3116 237° Southwest  Level Estimated
10:11AM 57.4416 -42.4714 237° Southwest  Level Estimated
10:12AM 57.3847 -42.6306 237° Southwest  Level Estimated
10:13AM 57.3276 -42.7894 236° Southwest  Level Estimated
10:14AM 57.2702 -42.9477 236° Southwest  Level Estimated
10:15AM 57.2127 -43.1055 236° Southwest  Level Estimated
10:16AM 57.1550 -43.2628 236° Southwest  Level Estimated
10:17AM 57.0971 -43.4197 236° Southwest  Level Estimated
10:18AM 57.0391 -43.5760 236° Southwest  Level Estimated
10:19AM 56.9808 -43.7318 236° Southwest  Level Estimated
10:20AM 56.9223 -43.8872 235° Southwest  Level Estimated
10:21AM 56.8636 -44.0420 235° Southwest  Level Estimated
10:22AM 56.8048 -44.1964 235° Southwest  Level Estimated
10:23AM 56.7457 -44.3503 235° Southwest  Level Estimated
10:24AM 56.6865 -44.5037 235° Southwest  Level Estimated
10:25AM 56.6270 -44.6567 235° Southwest  Level Estimated
10:26AM 56.5674 -44.8091 235° Southwest  Level Estimated
10:27AM 56.5076 -44.9611 235° Southwest  Level Estimated
10:28AM 56.4476 -45.1126 234° Southwest  Level Estimated
10:29AM 56.3875 -45.2636 234° Southwest  Level Estimated
10:30AM 56.3271 -45.4141 234° Southwest  Level Estimated
10:31AM 56.2666 -45.5642 234° Southwest  Level Estimated
10:32AM 56.2058 -45.7138 234° Southwest  Level Estimated
10:33AM 56.1450 -45.8629 234° Southwest  Level Estimated
10:34AM 56.0839 -46.0115 234° Southwest  Level Estimated
10:35AM 56.0226 -46.1597 234° Southwest  Level Estimated
10:36AM 55.9612 -46.3074 233° Southwest  Level Estimated
10:37AM 55.8996 -46.4546 233° Southwest  Level Estimated
10:38AM 55.8378 -46.6013 233° Southwest  Level Estimated
10:39AM 55.7758 -46.7476 233° Southwest  Level Estimated
10:40AM 55.7137 -46.8935 233° Southwest  Level Estimated
10:41AM 55.6514 -47.0388 233° Southwest  Level Estimated
10:42AM 55.5889 -47.1837 233° Southwest  Level Estimated
10:43AM 55.5263 -47.3282 233° Southwest  Level Estimated
10:44AM 55.4635 -47.4721 232° Southwest  Level Estimated
10:45AM 55.4005 -47.6157 232° Southwest  Level Estimated
10:46AM 55.3374 -47.7587 232° Southwest  Level Estimated
10:47AM 55.2740 -47.9013 232° Southwest  Level Estimated
10:48AM 55.2106 -48.0435 232° Southwest  Level Estimated
10:49AM 55.1469 -48.1852 232° Southwest  Level Estimated
10:50AM 55.0831 -48.3264 232° Southwest  Level Estimated
10:51AM 55.0191 -48.4672 232° Southwest  Level Estimated
10:52AM 54.9550 -48.6076 232° Southwest  Level Estimated
10:53AM 54.8907 -48.7475 231° Southwest  Level Estimated
10:54AM 54.8262 -48.8869 231° Southwest  Level Estimated
10:55AM 54.7616 -49.0260 231° Southwest  Level Estimated
10:56AM 54.6969 -49.1645 231° Southwest  Level Estimated
10:57AM 54.6319 -49.3026 231° Southwest  Level Estimated
10:58AM 54.5668 -49.4403 231° Southwest  Level Estimated
10:59AM 54.5016 -49.5776 231° Southwest  Level Estimated
11:00AM 54.4362 -49.7144 231° Southwest  Level Estimated
11:01AM 54.3707 -49.8507 231° Southwest  Level Estimated
11:02AM 54.3049 -49.9867 230° Southwest  Level Estimated
11:03AM 54.2391 -50.1222 230° Southwest  Level Estimated
11:04AM 54.1731 -50.2572 230° Southwest  Level Estimated
11:05AM 54.1069 -50.3919 230° Southwest  Level Estimated
11:06AM 54.0406 -50.5261 230° Southwest  Level Estimated
11:07AM 53.9741 -50.6599 230° Southwest  Level Estimated
11:08AM 53.9075 -50.7932 230° Southwest  Level Estimated
11:09AM 53.8408 -50.9261 230° Southwest  Level Estimated
11:10AM 53.7739 -51.0586 230° Southwest  Level Estimated
11:11AM 53.7068 -51.1907 229° Southwest  Level Estimated
11:12AM 53.6396 -51.3224 229° Southwest  Level Estimated
11:13AM 53.5723 -51.4536 229° Southwest  Level Estimated
11:14AM 53.5048 -51.5844 229° Southwest  Level Estimated
11:15AM 53.4372 -51.7149 229° Southwest  Level Estimated
11:16AM 53.3694 -51.8448 229° Southwest  Level Estimated
11:17AM 53.3016 -51.9744 229° Southwest  Level Estimated
11:18AM 53.2335 -52.1036 229° Southwest  Level Estimated
11:19AM 53.1653 -52.2323 229° Southwest  Level Estimated
11:20AM 53.0970 -52.3607 228° Southwest  Level Estimated
11:21AM 53.0285 -52.4886 228° Southwest  Level Estimated
11:22AM 52.9600 -52.6162 228° Southwest  Level Estimated
11:23AM 52.8912 -52.7433 228° Southwest  Level Estimated
11:24AM 52.8224 -52.8700 228° Southwest  Level Estimated
11:25AM 52.7534 -52.9964 228° Southwest  Level Estimated
11:26AM 52.6842 -53.1223 228° Southwest  Level Estimated
11:27AM 52.6150 -53.2478 228° Southwest  Level Estimated
11:28AM 52.5456 -53.3730 228° Southwest  Level Estimated
11:29AM 52.4760 -53.4977 228° Southwest  Level Estimated
11:29AM 54.9000 -55.1667 227° Southwest 350 403 36,000  Level Moncton Center
11:30AM 52.4064 -53.6220 227° Southwest  Level Estimated
11:30AM 54.8167 -55.3333 229° Southwest 340 391 36,000  Level Gander Center
11:31AM 52.3366 -53.7460 227° Southwest  Level Estimated
11:31AM 54.7833 -55.4500 244° Southwest 340 391 36,000  Level Gander Center
11:32AM 52.2663 -53.8701 227° Southwest  Level Estimated
11:32AM 54.7167 -55.5833 229° Southwest 340 391 36,000  Level Gander Center
11:33AM 52.1959 -53.9939 227° Southwest  Level Estimated
11:33AM 54.6500 -55.7000 225° Southwest 340 391 36,000  Level Gander Center
11:34AM 52.1254 -54.1173 227° Southwest  Level Estimated
11:34AM 54.6000 -55.8333 237° Southwest 340 391 36,000  Level Gander Center
11:35AM 54.5333 -55.9500 225° Southwest 340 391 36,000  Level Gander Center
11:36AM 54.4667 -56.0667 226° Southwest 340 391 36,000  Level Gander Center
11:37AM 54.4167 -56.2000 237° Southwest 330 380 36,000  Level Gander Center
11:38AM 54.3667 -56.2667 218° Southwest 330 380 36,000  Level Moncton Center
11:39AM 54.3000 -56.4000 229° Southwest 330 380 36,000  Level Moncton Center
11:40AM 54.2500 -56.5167 234° Southwest 330 380 36,000  Level Moncton Center
11:41AM 54.1833 -56.6167 221° Southwest 330 380 36,000  Level Moncton Center
11:42AM 54.1167 -56.7500 230° Southwest 330 380 36,000  Level Moncton Center
11:43AM 54.0667 -56.8667 234° Southwest 330 380 36,000  Level Moncton Center
11:44AM 53.9833 -57.0000 223° Southwest 330 380 36,000  Level Moncton Center
11:45AM 53.9500 -57.1000 241° Southwest 330 380 36,000  Level Moncton Center
11:46AM 53.8667 -57.2500 227° Southwest 330 380 36,000  Level Gander Center
11:47AM 53.8000 -57.3500 222° Southwest 330 380 36,000  Level Gander Center
11:48AM 53.7333 -57.4667 226° Southwest 320 368 36,000  Level Gander Center
11:49AM 53.6833 -57.5833 234° Southwest 320 368 36,000  Level Gander Center
11:50AM 53.6333 -57.7000 234° Southwest 310 357 36,000  Level Gander Center
11:51AM 53.5833 -57.7833 225° Southwest 310 357 36,000  Level Moncton Center
11:52AM 53.5167 -57.9000 226° Southwest 310 357 36,000  Level Moncton Center
11:53AM 53.4500 -58.0167 226° Southwest 310 357 36,000  Level Gander Center
11:54AM 53.3833 -58.1500 230° Southwest 310 357 36,000  Level Gander Center
11:55AM 53.3333 -58.2333 225° Southwest 310 357 36,000  Level Gander Center
11:56AM 53.2833 -58.3500 234° Southwest 310 357 36,000  Level Gander Center
11:57AM 53.2167 -58.4667 226° Southwest 310 357 36,000  Level Gander Center
11:58AM 53.1667 -58.5500 225° Southwest 310 357 36,000  Level Gander Center
11:59AM 53.1000 -58.6667 226° Southwest 310 357 36,000  Level Gander Center
12:00PM 53.0333 -58.7833 226° Southwest 310 357 36,000  Level Gander Center
12:01PM 52.9833 -58.9000 235° Southwest 310 357 36,000  Level Gander Center
12:02PM 52.9167 -58.9833 217° Southwest 310 357 36,000  Level Gander Center
12:03PM 52.8500 -59.1000 227° Southwest 310 357 36,000  Level Gander Center
12:04PM 52.8167 -59.1833 237° Southwest 310 357 36,000  Level Gander Center
12:05PM 52.7500 -59.3000 227° Southwest 310 357 36,000  Level Gander Center
12:06PM 52.7000 -59.4000 230° Southwest 310 357 36,000  Level Gander Center
12:07PM 52.6333 -59.4833 217° Southwest 300 345 36,000  Level Gander Center
12:08PM 52.5833 -59.6000 235° Southwest 300 345 36,000  Level Gander Center
12:09PM 52.5167 -59.6833 217° Southwest 300 345 36,000  Level Gander Center
12:10PM 52.4667 -59.8000 235° Southwest 300 345 36,000  Level Gander Center
12:11PM 52.4000 -59.8833 217° Southwest 300 345 36,000  Level Gander Center
12:12PM 52.3500 -60.0000 235° Southwest 300 345 36,000  Level Gander Center
12:13PM 52.2833 -60.0833 217° Southwest 300 345 36,000  Level Gander Center
12:14PM 52.2333 -60.1833 231° Southwest 300 345 36,000  Level Gander Center
12:15PM 52.1667 -60.3000 227° Southwest 300 345 36,000  Level Gander Center
12:16PM 52.1167 -60.3833 226° Southwest 300 345 36,000  Level Gander Center
12:17PM 52.0500 -60.4667 218° Southwest 300 345 36,000  Level Gander Center
12:18PM 52.0000 -60.5833 235° Southwest 300 345 36,000  Level Gander Center
12:19PM 51.9333 -60.6833 223° Southwest 300 345 36,000  Level Gander Center
12:20PM 51.8667 -60.7667 218° Southwest 300 345 36,000  Level Gander Center
12:21PM 51.8167 -60.8833 235° Southwest 300 345 36,000  Level Gander Center
12:22PM 51.7500 -60.9833 223° Southwest 310 357 36,000  Level Gander Center
12:23PM 51.6833 -61.0667 218° Southwest 320 368 36,000  Level Gander Center
12:24PM 51.6333 -61.1667 231° Southwest 330 380 36,000  Level Gander Center
12:25PM 51.5667 -61.2833 227° Southwest 330 380 36,000  Level Gander Center
12:26PM 51.5000 -61.3833 223° Southwest 330 380 36,000  Level Gander Center
12:27PM 51.4333 -61.5000 228° Southwest 330 380 36,000  Level Gander Center
12:28PM 51.3667 -61.6000 223° Southwest 330 380 36,000  Level Gander Center
12:29PM 51.3000 -61.7167 228° Southwest 330 380 36,000  Level Gander Center
12:30PM 51.2500 -61.7833 220° Southwest 330 380 36,000  Level Gander Center
12:31PM 51.1833 -61.8833 223° Southwest 340 391 36,000  Level Moncton Center
12:32PM 51.1167 -62.0000 228° Southwest 340 391 36,000  Level Moncton Center
12:33PM 51.0333 -62.1333 225° Southwest 340 391 36,000  Level Gander Center
12:34PM 50.9833 -62.2333 232° Southwest 340 391 36,000  Level Gander Center
12:35PM 50.9167 -62.3500 228° Southwest 340 391 36,000  Level Gander Center
12:36PM 50.8333 -62.4500 217° Southwest 340 391 36,000  Level Gander Center
12:37PM 50.7833 -62.5500 232° Southwest 340 391 36,000  Level Gander Center
12:38PM 50.7167 -62.6500 224° Southwest 340 391 36,000  Level Gander Center
12:39PM 50.6333 -62.7500 217° Southwest 350 403 36,000  Level Gander Center
12:40PM 50.5833 -62.8333 227° Southwest 340 391 36,000  Level Moncton Center
12:41PM 50.5000 -62.9667 226° Southwest 340 391 36,000  Level Gander Center
12:42PM 50.4167 -63.0667 217° Southwest 350 403 36,000  Level Gander Center
12:43PM 50.3500 -63.2000 232° Southwest 350 403 36,000  Level Gander Center
12:44PM 50.2833 -63.3000 224° Southwest 350 403 36,000  Level Gander Center
12:45PM 50.2167 -63.3833 219° Southwest 350 403 36,000  Level Moncton Center
12:46PM 50.1500 -63.4833 224° Southwest 350 403 36,000  Level Moncton Center
12:47PM 50.0833 -63.5833 224° Southwest 350 403 36,000  Level Moncton Center
12:48PM 50.0167 -63.7000 228° Southwest 360 414 36,000  Level Moncton Center
12:49PM 49.9333 -63.8000 218° Southwest 350 403 36,000  Level Moncton Center
12:50PM 49.8833 -63.9000 232° Southwest 360 414 36,000  Level Moncton Center
12:51PM 49.7833 -64.0333 221° Southwest 360 414 36,000  Level Gander Center
12:52PM 49.7167 -64.1333 224° Southwest 370 426 36,000  Level Gander Center
12:53PM 49.6667 -64.2167 227° Southwest 360 414 36,000  Level Moncton Center
12:54PM 49.5667 -64.3167 213° Southwest 360 414 36,000  Level Moncton Center
12:55PM 49.4833 -64.4500 226° Southwest 360 414 36,000  Level Gander Center
12:56PM 49.4000 -64.5500 218° Southwest 360 414 36,000  Level Gander Center
12:57PM 49.3333 -64.6667 229° Southwest 370 426 36,000  Level Gander Center
12:58PM 49.2667 -64.7667 224° Southwest 370 426 36,000  Level Gander Center
12:59PM 49.1833 -64.8667 218° Southwest 370 426 36,000  Level Gander Center
01:00PM 49.1000 -64.9833 223° Southwest 370 426 36,000  Level Gander Center
01:01PM 49.0333 -65.0833 225° Southwest 370 426 36,000  Level Gander Center
01:02PM 48.9500 -65.2000 223° Southwest 380 437 36,000  Level Gander Center
01:03PM 48.8833 -65.3000 225° Southwest 380 437 36,000  Level Gander Center
01:04PM 48.8000 -65.4167 223° Southwest 370 426 36,000  Level Gander Center
01:05PM 48.7167 -65.5167 218° Southwest 360 414 36,000  Level Gander Center
01:06PM 48.6667 -65.5833 221° Southwest 360 414 36,000  Level Moncton Center
01:07PM 48.6000 -65.6833 225° Southwest 370 426 36,000  Level Moncton Center
01:08PM 48.5167 -65.8167 227° Southwest 370 426 36,000  Level Moncton Center
01:09PM 48.4500 -65.9167 225° Southwest 370 426 36,000  Level Moncton Center
01:10PM 48.3500 -66.0167 214° Southwest 370 426 36,000  Level Moncton Center
01:11PM 48.2667 -66.1000 214° Southwest 380 437 36,000  Level Moncton Center
01:12PM 48.2000 -66.2000 225° Southwest 380 437 36,000  Level Moncton Center
01:13PM 48.1167 -66.3333 227° Southwest 380 437 36,000  Level Moncton Center
01:14PM 48.0333 -66.4333 219° Southwest 380 437 36,000  Level Moncton Center
01:15PM 47.9667 -66.5167 220° Southwest 380 437 36,000  Level Moncton Center
01:16PM 47.8833 -66.6500 227° Southwest 380 437 36,000  Level Moncton Center
01:17PM 47.8167 -66.7333 220° Southwest 380 437 36,000  Level Moncton Center
01:18PM 47.7167 -66.8333 214° Southwest 390 449 36,000  Level Moncton Center
01:19PM 47.6333 -66.9500 223° Southwest 390 449 36,000  Level Moncton Center
01:20PM 47.5500 -67.0500 219° Southwest 390 449 36,000  Level Moncton Center
01:21PM 47.4667 -67.1667 223° Southwest 390 449 36,000  Level Moncton Center
01:22PM 47.3833 -67.2667 219° Southwest 390 449 36,000  Level Moncton Center
01:28PM 46.9029 -67.9269 219° Southwest 395 455 36,000  Level FlightAware ADS-B (CYSG)
01:29PM 46.8024 -68.0580 222° Southwest 396 456 36,000  Level FlightAware ADS-B (CYSG)
01:30PM 46.7508 -68.1112 215° Southwest 399 459 36,000  Level FlightAware ADS-B (CYSG)
01:31PM 46.6365 -68.2045 209° Southwest 399 459 36,000  Level FlightAware ADS-B (CYSG)
01:32PM 46.5390 -68.2830 209° Southwest 403 464 36,000  Level FlightAware ADS-B (CYSG)
01:32PM 46.4881 -68.3237 209° Southwest 405 466 36,000  Level FlightAware ADS-B (CYSG)
01:33PM 46.4297 -68.3700 209° Southwest 407 468 36,000  Level FlightAware ADS-B (CYSG)
01:33PM 46.3863 -68.4044 209° Southwest 408 470 36,000  Level FlightAware ADS-B (CYSG)
01:34PM 46.3229 -68.4545 209° Southwest 407 468 36,000  Level FlightAware ADS-B (CYSG)
01:35PM 46.2348 -68.5240 209° Southwest 403 464 36,000  Level FlightAware ADS-B (CYSG)
01:36PM 46.1660 -68.5781 209° Southwest 406 467 36,000  Level FlightAware ADS-B (CYSG)
01:36PM 46.1271 -68.6087 209° Southwest 407 468 36,000  Level FlightAware ADS-B (CYSG)
01:37PM 46.0595 -68.6615 208° Southwest 410 472 36,000  Level FlightAware ADS-B (CYSG)
01:37PM 45.9995 -68.7083 208° Southwest 410 472 36,000  Level FlightAware ADS-B (CYSG)
01:38PM 45.9273 -68.7645 208° Southwest 412 474 36,000  Level FlightAware ADS-B (CYSG)
01:39PM 45.8579 -68.8183 208° Southwest 405 466 36,000  Level FlightAware ADS-B (CYSG)
01:40PM 45.7587 -68.8949 208° Southwest 402 463 36,000  Level FlightAware ADS-B (CYSG)
01:40PM 45.7060 -68.9355 208° Southwest 406 467 36,000  Level FlightAware ADS-B (CYSG)
01:41PM 45.6266 -68.9965 208° Southwest 408 470 36,000  Level FlightAware ADS-B (CYSG)
01:42PM 45.5697 -69.0402 208° Southwest 407 468 36,000  Level FlightAware ADS-B (CYSG)
01:42PM 45.4842 -69.1055 208° Southwest 405 466 36,000  Level FlightAware ADS-B (KBGR)
01:43PM 45.4283 -69.1481 208° Southwest 400 460 36,000  Level FlightAware ADS-B (KBGR)
01:44PM 45.3793 -69.1854 208° Southwest 400 460 36,000  Level FlightAware ADS-B (KBGR)
01:44PM 45.3254 -69.2263 208° Southwest 404 465 36,000  Level FlightAware ADS-B (KBGR)
01:45PM 45.2945 -69.2497 208° Southwest 401 461 36,000  Level FlightAware ADS-B (CYSG)
01:45PM 45.2034 -69.3185 208° Southwest 401 461 36,000  Level FlightAware ADS-B (KBGR)
01:46PM 45.1405 -69.3659 208° Southwest 405 466 36,000  Level FlightAware ADS-B (CYSG)
01:47PM 45.0981 -69.3978 208° Southwest 406 467 36,000  Level FlightAware ADS-B (KBGR)
01:47PM 44.9996 -69.4715 208° Southwest 408 470 36,000  Level FlightAware ADS-B (KBGR)
01:48PM 44.9638 -69.4984 208° Southwest 408 470 36,000  Level FlightAware ADS-B (KBGR)
01:49PM 44.8915 -69.5522 208° Southwest 401 461 36,000  Level FlightAware ADS-B (CYSG)
01:49PM 44.8246 -69.6020 208° Southwest 403 464 36,000  Level FlightAware ADS-B (CYSG)
01:50PM 44.7698 -69.6427 208° Southwest 404 465 36,000  Level FlightAware ADS-B (CYSG)
01:50PM 44.7135 -69.6845 208° Southwest 407 468 36,000  Level FlightAware ADS-B (KBGR)
01:51PM 44.6595 -69.7243 208° Southwest 407 468 36,000  Level FlightAware ADS-B (CYQI)
01:51PM 44.6085 -69.7619 208° Southwest 404 465 36,000  Level FlightAware ADS-B (CYSG)
01:52PM 44.5440 -69.8093 208° Southwest 404 465 36,000  Level FlightAware ADS-B (CYSG)
01:52PM 44.4928 -69.8470 208° Southwest 404 465 36,000  Level FlightAware ADS-B (CYSG)
01:53PM 44.4354 -69.8890 208° Southwest 403 464 36,000  Level FlightAware ADS-B (KBGR)
01:54PM 44.3793 -69.9299 208° Southwest 398 458 36,000  Level FlightAware ADS-B
01:54PM 44.3161 -69.9761 208° Southwest 408 470 36,000  Level FlightAware ADS-B (CYQI)
01:55PM 44.2637 -70.0142 208° Southwest 407 468 36,000  Level FlightAware ADS-B (CYQI)
01:55PM 44.1832 -70.0727 208° Southwest 402 463 36,000  Level FlightAware ADS-B (CYQI)
01:56PM 44.1065 -70.1283 207° Southwest 407 468 36,000  Level FlightAware ADS-B (CYQI)
01:56PM 44.0926 -70.1383 207° Southwest 401 461 36,000  Level FlightAware ADS-B
01:57PM 44.0532 -70.1667 207° Southwest 409 471 36,000  Level FlightAware ADS-B (CYQI)
01:57PM 43.9966 -70.2074 207° Southwest 402 463 36,000  Level FlightAware ADS-B
01:58PM 43.9745 -70.2233 207° Southwest 409 471 36,000  Level FlightAware ADS-B (KBOS)
01:59PM 43.8812 -70.2903 207° Southwest 400 460 36,000  Level FlightAware ADS-B
01:59PM 43.8740 -70.2954 207° Southwest 407 468 36,000  Level FlightAware ADS-B (KBOS)
01:59PM 43.8055 -70.3444 207° Southwest 400 460 36,000  Level FlightAware ADS-B
02:00PM 43.7880 -70.3568 207° Southwest 411 473 36,000  Level FlightAware ADS-B
02:00PM 43.7423 -70.3895 207° Southwest 412 474 36,000  Level FlightAware ADS-B
02:01PM 43.6432 -70.4599 207° Southwest 403 464 36,000  Level FlightAware ADS-B
02:01PM 43.6057 -70.4864 207° Southwest 398 458 36,000  Level FlightAware ADS-B
02:02PM 43.5533 -70.5235 207° Southwest 398 458 36,000  Level FlightAware ADS-B
02:02PM 43.5015 -70.5602 207° Southwest 398 458 36,000  Level FlightAware ADS-B
02:03PM 43.4503 -70.5956 207° Southwest 399 459 36,000  Level FlightAware ADS-B (KBOS)
02:03PM 43.4093 -70.6170 201° Southwest 405 466 36,000  Level FlightAware ADS-B
02:04PM 43.3431 -70.6415 195° South 408 470 36,000  Level FlightAware ADS-B
02:04PM 43.2855 -70.6630 195° South 399 459 36,000  Level FlightAware ADS-B
02:05PM 43.2248 -70.6852 195° South 406 467 36,000  Level FlightAware ADS-B (KBOS)
02:06PM 43.1631 -70.7073 195° South 407 468 36,000  Level FlightAware ADS-B
02:06PM 43.1055 -70.7277 195° South 409 471 36,000  Level FlightAware ADS-B
02:07PM 43.0421 -70.7503 195° South 411 473 36,000  Level FlightAware ADS-B (KBOS)
02:07PM 42.9836 -70.7709 194° South 412 474 36,000  Level FlightAware ADS-B (KBOS)
02:08PM 42.9199 -70.7933 194° South 412 474 36,000  Level FlightAware ADS-B
02:08PM 42.8695 -70.8111 195° South 413 475 36,000  Level FlightAware ADS-B (KBOS)
02:09PM 42.8122 -70.8314 194° South 415 478 36,000  Level FlightAware ADS-B (KBOS)
02:09PM 42.7727 -70.8515 201° Southwest 403 464 36,000  Level FlightAware ADS-B (KBOS)
02:10PM 42.7310 -70.8943 217° Southwest 396 456 36,000  Level FlightAware ADS-B (KBOS)
02:10PM 42.7149 -70.9117 218° Southwest 397 457 36,000  Level FlightAware ADS-B (KBOS)
02:10PM 42.6722 -70.9575 218° Southwest 397 457 36,000  Level FlightAware ADS-B (KBOS)
02:11PM 42.6277 -71.0050 218° Southwest 398 458 36,000  Level FlightAware ADS-B (KBOS)
02:11PM 42.5846 -71.0510 218° Southwest 398 458 36,000  Level FlightAware ADS-B (KBOS)
02:11PM 42.5735 -71.0628 218° Southwest 396 456 36,000  Level FlightAware ADS-B (KBOS)
02:12PM 42.5568 -71.0805 218° Southwest 395 455 36,000  Level FlightAware ADS-B (KBOS)
02:12PM 42.5106 -71.1296 218° Southwest 391 450 36,000  Level FlightAware ADS-B (KBOS)
02:13PM 42.4569 -71.1867 218° Southwest 389 448 36,000  Level FlightAware ADS-B
02:13PM 42.4116 -71.2347 218° Southwest 380 437 36,000  Level FlightAware ADS-B (KBOS)
02:14PM 42.3700 -71.2785 218° Southwest 380 437 36,000  Level FlightAware ADS-B (KBOS)
02:14PM 42.3272 -71.3234 218° Southwest 373 429 36,000  Level FlightAware ADS-B (KBOS)
02:14PM 42.3190 -71.3321 218° Southwest 373 429 36,000  Level FlightAware ADS-B
02:15PM 42.2769 -71.3765 218° Southwest 372 428 36,000  Level FlightAware ADS-B
02:15PM 42.2356 -71.4198 218° Southwest 373 429 36,000  Level FlightAware ADS-B
02:16PM 42.1940 -71.4634 218° Southwest 374 430 36,000  Level FlightAware ADS-B
02:17PM 42.1443 -71.5154 218° Southwest 381 438 36,000  Level FlightAware ADS-B (KBOS)
02:17PM 42.1309 -71.5293 218° Southwest 381 438 36,000  Level FlightAware ADS-B
02:17PM 42.0879 -71.5743 218° Southwest 382 440 36,000  Level FlightAware ADS-B (KBOS)
02:18PM 42.0412 -71.6229 218° Southwest 376 433 36,000  Level FlightAware ADS-B
02:18PM 41.9990 -71.6668 218° Southwest 373 429 36,000  Level FlightAware ADS-B
02:19PM 41.9580 -71.7093 218° Southwest 372 428 36,000  Level FlightAware ADS-B
02:19PM 41.9366 -71.7316 218° Southwest 371 427 36,000  Level FlightAware ADS-B
02:19PM 41.9036 -71.7656 218° Southwest 369 425 36,000  Level FlightAware ADS-B
02:20PM 41.8632 -71.8073 218° Southwest 375 432 36,000  Level FlightAware ADS-B
02:20PM 41.8177 -71.8542 218° Southwest 374 430 36,000  Level FlightAware ADS-B
02:21PM 41.7720 -71.9013 218° Southwest 371 427 36,000  Level FlightAware ADS-B
02:21PM 41.7604 -71.9132 217° Southwest 370 426 36,000  Level FlightAware ADS-B
02:22PM 41.7209 -71.9538 217° Southwest 368 423 36,000  Level FlightAware ADS-B
02:22PM 41.6793 -71.9965 217° Southwest 368 423 36,000  Level FlightAware ADS-B
02:23PM 41.6441 -72.0325 217° Southwest 369 425 36,000  Level FlightAware ADS-B
02:23PM 41.5964 -72.0813 217° Southwest 369 425 36,000  Level FlightAware ADS-B
02:24PM 41.5531 -72.1254 217° Southwest 368 423 36,000  Level FlightAware ADS-B (KSNC)
02:24PM 41.5117 -72.1676 217° Southwest 367 422 36,000  Level FlightAware ADS-B
02:25PM 41.4714 -72.2087 217° Southwest 364 419 36,000  Level FlightAware ADS-B
02:25PM 41.4288 -72.2518 217° Southwest 365 420 36,000  Level FlightAware ADS-B (KSNC)
02:26PM 41.3876 -72.2936 217° Southwest 365 420 36,000  Level FlightAware ADS-B (KSNC)
02:26PM 41.3486 -72.3331 217° Southwest 365 420 36,000  Level FlightAware ADS-B (KSNC)
02:27PM 41.2949 -72.3873 217° Southwest 368 423 36,000  Level FlightAware ADS-B (KSNC)
02:27PM 41.2502 -72.4324 217° Southwest 366 421 36,000  Level FlightAware ADS-B (KSNC)
02:28PM 41.2073 -72.4756 217° Southwest 366 421 36,000  Level FlightAware ADS-B (KSNC)
02:29PM 41.1631 -72.5201 217° Southwest 365 420 36,000  Level FlightAware ADS-B (KSNC)
02:29PM 41.1140 -72.5693 217° Southwest 366 421 36,000  Level FlightAware ADS-B (KSNC)
02:30PM 41.0675 -72.6158 217° Southwest 366 421 36,000  Level FlightAware ADS-B (KSNC)
02:30PM 41.0192 -72.6641 217° Southwest 367 422 36,000  Level FlightAware ADS-B (KSNC)
02:31PM 40.9815 -72.7018 217° Southwest 368 423 36,000  Level FlightAware ADS-B (KSNC)
02:31PM 40.9367 -72.7464 217° Southwest 368 423 36,000  Level FlightAware ADS-B (KSNC)
02:32PM 40.8827 -72.8000 217° Southwest 369 425 36,000  Level FlightAware ADS-B (KSNC)
02:33PM 40.8412 -72.8413 217° Southwest 369 425 36,000  Level FlightAware ADS-B (KSNC)
02:33PM 40.7875 -72.8946 217° Southwest 371 427 36,000  Level FlightAware ADS-B (KSNC)
02:34PM 40.7559 -72.9258 217° Southwest 365 420 36,000  Level FlightAware ADS-B (KWWD)
02:34PM 40.7178 -72.9634 217° Southwest 366 421 36,000  Level FlightAware ADS-B (KWWD)
02:35PM 40.6772 -73.0034 217° Southwest 372 428 36,000  Level FlightAware ADS-B (KSNC)
02:35PM 40.6244 -73.0553 217° Southwest 366 421 36,000  Level FlightAware ADS-B (KWWD)
02:35PM 40.5995 -73.0798 217° Southwest 366 421 36,000  Level FlightAware ADS-B (KWWD)
02:36PM 40.5709 -73.1078 217° Southwest 373 429 36,000  Level FlightAware ADS-B (KSNC)
02:36PM 40.5261 -73.1517 217° Southwest 373 429 36,000  Level FlightAware ADS-B (KSNC)
02:36PM 40.5167 -73.1609 216° Southwest 367 422 36,000  Level FlightAware ADS-B (KWWD)
02:37PM 40.4695 -73.2070 217° Southwest 373 429 36,000  Level FlightAware ADS-B (KSNC)
02:37PM 40.4541 -73.2221 217° Southwest 367 422 36,000  Level FlightAware ADS-B (KWWD)
02:38PM 40.4125 -73.2627 217° Southwest 374 430 36,000  Level FlightAware ADS-B (KSNC)
02:38PM 40.3584 -73.3155 217° Southwest 374 430 36,000  Level FlightAware ADS-B (KSNC)
02:38PM 40.3563 -73.3175 216° Southwest 374 430 36,000  Level FlightAware ADS-B (KSNC)
02:39PM 40.2822 -73.3895 217° Southwest 378 435 36,000  Level FlightAware ADS-B (KWWD)
02:40PM 40.2391 -73.4314 216° Southwest 378 435 36,000  Level FlightAware ADS-B (KWWD)
02:40PM 40.1923 -73.4766 216° Southwest 378 435 36,000  Level FlightAware ADS-B (KWWD)
02:41PM 40.1507 -73.5167 216° Southwest 380 437 36,000  Level FlightAware ADS-B (KWWD)
02:41PM 40.1068 -73.5591 216° Southwest 380 437 36,000  Level FlightAware ADS-B (KWWD)
02:42PM 40.0648 -73.5995 216° Southwest 381 438 36,000  Level FlightAware ADS-B (KWWD)
02:42PM 40.0231 -73.6398 216° Southwest 383 441 36,000  Level FlightAware ADS-B (KSNC)
02:43PM 39.9644 -73.6963 216° Southwest 384 442 36,000  Level FlightAware ADS-B (KWWD)
02:43PM 39.9219 -73.7370 216° Southwest 385 443 36,000  Level FlightAware ADS-B (KWWD)
02:44PM 39.8784 -73.7786 216° Southwest 379 436 36,000  Level FlightAware ADS-B (KWWD)
02:45PM 39.8350 -73.8201 216° Southwest 380 437 36,000  Level FlightAware ADS-B (KWWD)
02:45PM 39.8040 -73.8496 216° Southwest 386 444 36,000  Level FlightAware ADS-B (KSNC)
02:45PM 39.7960 -73.8573 216° Southwest 386 444 36,000  Level FlightAware ADS-B (KSNC)
02:46PM 39.7482 -73.9027 216° Southwest 379 436 36,000  Level FlightAware ADS-B (KWWD)
02:46PM 39.7050 -73.9437 216° Southwest 379 436 36,000  Level FlightAware ADS-B (KWWD)
02:47PM 39.6628 -73.9837 216° Southwest 384 442 36,000  Level FlightAware ADS-B (KWWD)
02:47PM 39.6189 -74.0254 216° Southwest 383 441 36,000  Level FlightAware ADS-B (KWWD)
02:48PM 39.5736 -74.0637 213° Southwest 389 448 36,000  Level FlightAware ADS-B (KWWD)
02:48PM 39.5135 -74.1070 209° Southwest 391 450 36,000  Level FlightAware ADS-B (KWWD)
02:49PM 39.4644 -74.1428 209° Southwest 393 452 36,000  Level FlightAware ADS-B (KWWD)
02:49PM 39.4020 -74.1882 209° Southwest 390 449 36,000  Level FlightAware ADS-B (KWWD)
02:50PM 39.3539 -74.2232 209° Southwest 388 447 36,000  Level FlightAware ADS-B (KWWD)
02:51PM 39.2900 -74.2628 206° Southwest 391 450 36,000  Level FlightAware ADS-B (KWWD)
02:51PM 39.2391 -74.2918 204° Southwest 391 450 36,000  Level FlightAware ADS-B (KWWD)
02:52PM 39.1746 -74.3291 204° Southwest 389 448 36,000  Level FlightAware ADS-B (KWWD)
02:52PM 39.1235 -74.3583 204° Southwest 388 447 36,000  Level FlightAware ADS-B (KWWD)
02:53PM 39.0742 -74.3866 204° Southwest 388 447 36,000  Level FlightAware ADS-B (KWWD)
02:53PM 39.0246 -74.4151 204° Southwest 389 448 36,000  Level FlightAware ADS-B (KWWD)
02:54PM 38.9759 -74.4429 204° Southwest 389 448 36,000  Level FlightAware ADS-B (KWWD)
02:54PM 38.9261 -74.4713 204° Southwest 388 447 36,000  Level FlightAware ADS-B (KWWD)
02:55PM 38.8768 -74.4994 204° Southwest 389 448 36,000  Level FlightAware ADS-B (KWWD)
02:55PM 38.8278 -74.5273 204° Southwest 388 447 36,000  Level FlightAware ADS-B (KWWD)
02:56PM 38.7656 -74.5627 204° Southwest 388 447 36,000  Level FlightAware ADS-B (KWWD)
02:56PM 38.7133 -74.5924 204° Southwest 386 444 36,000  Level FlightAware ADS-B (KWWD)
02:57PM 38.6641 -74.6203 204° Southwest 387 445 36,000  Level FlightAware ADS-B (KWWD)
02:58PM 38.5991 -74.6571 204° Southwest 387 445 36,000  Level FlightAware ADS-B (KWWD)
02:58PM 38.5496 -74.6850 204° Southwest 386 444 36,000  Level FlightAware ADS-B (KWWD)
02:59PM 38.5013 -74.7123 204° Southwest 386 444 36,000  Level FlightAware ADS-B (KWWD)
02:59PM 38.4521 -74.7399 204° Southwest 387 445 36,000  Level FlightAware ADS-B (KWWD)
03:00PM 38.4017 -74.7682 204° Southwest 387 445 36,000  Level FlightAware ADS-B (KWWD)
03:00PM 38.3368 -74.8046 204° Southwest 390 449 36,000  Level FlightAware ADS-B (KWWD)
03:01PM 38.2880 -74.8320 204° Southwest 391 450 36,000  Level FlightAware ADS-B (KWWD)
03:01PM 38.2216 -74.8690 204° Southwest 385 443 36,000  Level FlightAware ADS-B (KWWD)
03:02PM 38.1703 -74.8977 204° Southwest 385 443 36,000  Level FlightAware ADS-B (KWWD)
03:02PM 38.1198 -74.9258 204° Southwest 391 450 36,000  Level FlightAware ADS-B (KWWD)
03:03PM 38.0706 -74.9532 204° Southwest 385 443 36,000  Level FlightAware ADS-B (KWWD)
03:04PM 38.0055 -74.9895 204° Southwest 391 450 36,000  Level FlightAware ADS-B (KWWD)
03:04PM 37.9547 -75.0177 204° Southwest 390 449 36,000  Level FlightAware ADS-B (KWWD)
03:05PM 37.9032 -75.0462 204° Southwest 390 449 36,000  Level FlightAware ADS-B (KWWD)
03:05PM 37.8383 -75.0821 204° Southwest 385 443 36,000  Level FlightAware ADS-B (KWWD)
03:06PM 37.7872 -75.1104 204° Southwest 387 445 36,000  Level FlightAware ADS-B (KWWD)
03:06PM 37.7214 -75.1466 204° Southwest 388 447 36,000  Level FlightAware ADS-B (KWWD)
03:07PM 37.6714 -75.1741 204° Southwest 389 448 36,000  Level FlightAware ADS-B (KWWD)
03:08PM 37.6039 -75.2112 203° Southwest 390 449 36,000  Level FlightAware ADS-B (KWWD)
03:08PM 37.5541 -75.2385 204° Southwest 391 450 36,000  Level FlightAware ADS-B (KWWD)
03:09PM 37.5031 -75.2664 203° Southwest 391 450 36,000  Level FlightAware ADS-B (KWWD)
03:09PM 37.4514 -75.2946 203° Southwest 390 449 36,000  Level FlightAware ADS-B (KWWD)
03:10PM 37.3851 -75.3307 203° Southwest 387 445 36,000  Level FlightAware ADS-B (KWWD)
03:10PM 37.3292 -75.3612 203° Southwest 385 443 36,000  Level FlightAware ADS-B (KWWD)
03:11PM 37.2544 -75.4018 203° Southwest 390 449 36,000  Level FlightAware ADS-B (KWWD)
03:12PM 37.1932 -75.4350 203° Southwest 387 445 36,000  Level FlightAware ADS-B (KWWD)
03:12PM 37.1307 -75.4689 203° Southwest 386 444 36,000  Level FlightAware ADS-B (KWWD)
03:14PM 36.9292 -75.5776 203° Southwest 390 449 36,000  Level FlightAware ADS-B (KWWD)
03:17PM 36.6435 -75.7307 203° Southwest 390 449 36,000  Level FlightAware ADS-B (KWWD)
03:18PM 36.5772 -75.7653 203° Southwest 394 453 36,000  Level Washington Center
03:19PM 36.4772 -75.8192 203° Southwest 399 459 36,000  Level Washington Center
03:20PM 36.3686 -75.8783 204° Southwest 399 459 36,000  Level Washington Center
03:21PM 36.2681 -75.9294 202° Southwest 399 459 36,000  Level Washington Center
03:22PM 36.1658 -75.9831 203° Southwest 399 459 36,000  Level Washington Center
03:23PM 36.0633 -76.0367 203° Southwest 399 459 36,000  Level Washington Center
03:24PM 35.9631 -76.0900 203° Southwest 399 459 36,000  Level Washington Center
03:25PM 35.8628 -76.1456 204° Southwest 399 459 36,000  Level Washington Center
03:26PM 35.7622 -76.1961 202° Southwest 399 459 36,000  Level Washington Center
03:27PM 35.6619 -76.2464 202° Southwest 399 459 36,000  Level Washington Center
03:28PM 35.5592 -76.2967 202° Southwest 399 459 36,000  Level Washington Center
03:29PM 35.4589 -76.3494 203° Southwest 399 459 36,000  Level Washington Center
03:30PM 35.3583 -76.4019 203° Southwest 399 459 36,000  Level Washington Center
03:31PM 35.2600 -76.4544 204° Southwest 399 459 36,000  Level Washington Center
03:32PM 35.1636 -76.5042 203° Southwest 399 459 36,000  Level Washington Center
03:33PM 35.0650 -76.5539 202° Southwest 399 459 36,000  Level Washington Center
03:34PM 34.9667 -76.6033 202° Southwest 399 459 36,000  Level Washington Center
03:35PM 34.8661 -76.6553 203° Southwest 399 459 36,000  Level Washington Center
03:36PM 34.7653 -76.7097 204° Southwest 399 459 36,000  Level Washington Center
03:37PM 34.6606 -76.7636 203° Southwest 399 459 36,000  Level Washington Center
03:38PM 34.5600 -76.8128 202° Southwest 399 459 36,000  Level Washington Center
03:39PM 34.4550 -76.8642 202° Southwest 399 459 36,000  Level Washington Center
03:40PM 34.3503 -76.9153 202° Southwest 399 459 36,000  Level Washington Center
03:41PM 34.2475 -76.9689 203° Southwest 399 459 36,000  Level Washington Center
03:42PM 34.1425 -77.0197 202° Southwest 399 459 36,000  Level Washington Center
03:44PM 33.9728 -77.1033 202° Southwest 409 471 36,000  Level Jacksonville Center
03:45PM 33.8708 -77.1550 203° Southwest 409 471 36,000  Level Jacksonville Center
03:46PM 33.7647 -77.2069 202° Southwest 409 471 36,000  Level Jacksonville Center
03:47PM 33.6625 -77.2586 203° Southwest 409 471 36,000  Level Jacksonville Center
03:48PM 33.5564 -77.3100 202° Southwest 409 471 36,000  Level Jacksonville Center
03:49PM 33.4503 -77.3617 202° Southwest 409 471 36,000  Level Jacksonville Center
03:50PM 33.3439 -77.4131 202° Southwest 409 471 36,000  Level Jacksonville Center
03:51PM 33.2397 -77.4642 202° Southwest 409 471 36,000  Level Jacksonville Center
03:52PM 33.1333 -77.5153 202° Southwest 409 471 36,000  Level Jacksonville Center
03:53PM 33.0292 -77.5686 203° Southwest 409 471 36,000  Level Jacksonville Center
03:54PM 32.9228 -77.6194 202° Southwest 409 471 36,000  Level Jacksonville Center
03:55PM 32.8186 -77.6700 202° Southwest 409 471 36,000  Level Jacksonville Center
03:56PM 32.7122 -77.7206 202° Southwest 409 471 36,000  Level Jacksonville Center
03:57PM 32.6075 -77.7683 201° Southwest 409 471 36,000  Level Jacksonville Center
03:58PM 32.5031 -77.8186 202° Southwest 409 471 36,000  Level Jacksonville Center
03:59PM 32.3967 -77.8689 202° Southwest 409 471 36,000  Level Jacksonville Center
04:00PM 32.2942 -77.9186 202° Southwest 409 471 36,000  Level Jacksonville Center
04:01PM 32.1878 -77.9711 203° Southwest 409 471 36,000  Level Jacksonville Center
04:02PM 32.0831 -78.0183 201° Southwest 409 471 36,000  Level Jacksonville Center
04:03PM 31.9767 -78.0681 202° Southwest 409 471 36,000  Level Jacksonville Center
04:04PM 31.8717 -78.1128 200° South 409 471 36,000  Level Jacksonville Center
04:05PM 31.7675 -78.1669 204° Southwest 409 471 36,000  Level Jacksonville Center
04:06PM 31.6608 -78.2211 203° Southwest 409 471 36,000  Level Jacksonville Center
04:07PM 31.5561 -78.2703 202° Southwest 409 471 36,000  Level Jacksonville Center
04:08PM 31.4475 -78.3219 202° Southwest 414 476 36,000  Level Jacksonville Center
04:09PM 31.3447 -78.3683 201° Southwest 409 471 36,000  Level Jacksonville Center
04:10PM 31.2358 -78.4197 202° Southwest 409 471 36,000  Level Jacksonville Center
04:11PM 31.1311 -78.4683 202° Southwest 409 471 36,000  Level Jacksonville Center
04:12PM 31.0142 -78.5225 202° Southwest 416 479 36,000  Level Jacksonville Center
04:13PM 30.9133 -78.5683 201° Southwest 416 479 36,000  Level Jacksonville Center
04:14PM 30.8086 -78.6189 203° Southwest 416 479 36,000  Level Jacksonville Center
04:15PM 30.7017 -78.6672 201° Southwest 416 479 36,000  Level Jacksonville Center
04:16PM 30.5267 -78.7142 193° South 419 482 36,000  Level Miami Center
04:17PM 30.4119 -78.7364 189° South 419 482 36,000  Level Miami Center
04:18PM 30.2928 -78.7583 189° South 430 495 36,000  Level Miami Center
04:19PM 30.1717 -78.7778 188° South 430 495 36,000  Level Miami Center
04:20PM 30.0669 -78.7975 189° South 423 487 36,000  Level Miami Center
04:21PM 29.9375 -78.8261 191° South 423 487 36,000  Level Miami Center
04:22PM 29.8203 -78.8456 188° South 429 494 36,000  Level Miami Center
04:23PM 29.7033 -78.8625 187° South 429 494 36,000  Level Miami Center
04:24PM 29.5864 -78.8769 186° South 429 494 36,000  Level Miami Center
04:25PM 29.4672 -78.8892 185° South 429 494 36,000  Level Miami Center
04:26PM 29.3544 -78.9083 188° South 429 494 36,000  Level Miami Center
04:27PM 29.2372 -78.9231 186° South 423 487 36,000  Level Miami Center
04:28PM 29.1183 -78.9375 186° South 423 487 36,000  Level Miami Center
04:29PM 29.0033 -78.9517 186° South 428 493 36,000  Level Miami Center
04:30PM 28.8903 -78.9664 187° South 428 493 36,000  Level Miami Center
04:31PM 28.7733 -78.9831 187° South 422 486 36,000  Level Miami Center
04:32PM 28.6561 -78.9972 186° South 428 493 36,000  Level Miami Center
04:33PM 28.5411 -79.0117 186° South 428 493 36,000  Level Miami Center
04:34PM 28.4261 -79.0261 186° South 428 493 36,000  Level Miami Center
04:35PM 28.3111 -79.0475 189° South 428 493 36,000  Level Miami Center
04:36PM 28.2000 -79.0806 195° South 428 493 36,000  Level Miami Center
04:37PM 28.0867 -79.1161 195° South 421 484 36,000  Level Miami Center
04:38PM 27.9775 -79.1467 194° South 416 479 36,000 -420 Level Miami Center
04:39PM 27.8686 -79.1822 196° South 416 479 35,200 -1,200 Descending Miami Center
04:40PM 27.7531 -79.2172 195° South 422 486 33,700 -1,680 Descending Miami Center
04:41PM 27.6419 -79.2503 195° South 422 486 31,900 -1,800 Descending Miami Center
04:42PM 27.5453 -79.2764 193° South 412 474 30,200 -1,680 Descending Miami Center
04:43PM 27.4364 -79.3092 195° South 406 467 28,600 -1,800 Descending Miami Center
04:44PM 27.3208 -79.3464 196° South 401 461 26,700 -1,800 Descending Miami Center
04:45PM 27.2200 -79.3769 195° South 396 456 25,100 -1,380 Descending Miami Center
04:46PM 27.1172 -79.4097 196° South 390 449 24,000 -900 Descending Miami Center
04:47PM 27.0228 -79.4356 194° South 388 447 23,300 -1,260 Descending Miami Center
04:48PM 26.9156 -79.4683 195° South 398 458 21,500 -1,500 Descending Miami Center
04:49PM 26.8019 -79.5075 197° South 392 451 20,300 -1,080 Descending Miami Center
04:50PM 26.7161 -79.5311 194° South 378 435 19,400 -1,140 Descending Miami Center
04:51PM 26.6256 -79.5686 200° South 348 400 18,200 -1,440 Descending Miami Center
04:51PM 26.6150 -79.5731 201° Southwest 359 413 18,000 -840 Descending Miami Center
04:52PM 26.5369 -79.6178 207° Southwest 348 400 17,300 -900 Descending Miami Center
04:52PM 26.5242 -79.6289 218° Southwest 334 384 17,100 -1,140 Descending Miami Center
04:53PM 26.4786 -79.7092 238° Southwest 327 376 16,200 -1,020 Descending Miami Center
04:53PM 26.4744 -79.7183 243° Southwest 332 382 16,100 -240 Descending Miami Center
04:54PM 26.4289 -79.7961 237° Southwest 326 375 16,000 -120 Descending Miami Center
04:54PM 26.4353 -79.7869 52° Northeast 334 384 16,000  Level Miami Center
04:55PM 26.3814 -79.8783 237° Southwest 334 384 16,000 -360 Level Miami Center
04:56PM 26.3214 -79.9419 224° Southwest 334 384 15,300 -720 Descending Miami Center
04:56PM 26.3150 -79.9486 223° Southwest 322 371 15,300 -1,140 Level Miami Center
04:57PM 26.2508 -80.0164 223° Southwest 323 372 14,200 -1,200 Descending Miami Center
04:57PM 26.2447 -80.0164 180° South 324 373 14,100 -1,020 Descending Miami Center
04:58PM 26.1628 -80.0419 196° South 316 364 13,200 -900 Descending Miami Center
04:58PM 26.1500 -80.0439 188° South 331 381 13,200 -960 Level Miami Center
04:59PM 26.0556 -80.0714 195° South 330 380 12,100 -1,020 Descending Miami Center
05:00PM 25.9861 -80.0881 192° South 327 376 11,200 -1,020 Descending Miami Center
05:00PM 25.9672 -80.0967 202° Southwest 319 367 11,100 -900 Descending Miami Center
05:01PM 25.9153 -80.1739 233° Southwest 309 356 10,200 -720 Descending Miami Center
05:02PM 25.8883 -80.2608 251° West 286 329 9,700 -1,260 Descending Miami Center
05:03PM 25.8778 -80.3506 263° West 279 321 7,700 -1,740 Descending Miami Center
05:04PM 25.8717 -80.4336 265° West 260 299 6,200 -1,140 Descending Miami Center
05:06PM 25.8428 -80.5042 246° West 194 223 5,200 -1,380 Descending Miami Center
05:07PM 25.7969 -80.5028 178° South 196 226 3,300 -1,740 Descending Miami Center
05:08PM 25.7772 -80.4539 114° Southeast 161 185 1,900 -900 Descending Miami Center
05:09PM 25.7806 -80.4056 86° East 161 185 1,500 -600 Descending Miami Center
05:10PM 25.7814 -80.3594 89° East 125 144 800 -720 Descending Miami Center
05:11PM 25.7844 -80.3203 85° East 125 144 100 -720 Descending Miami Center
05:13PM 25.7833 -80.2833 103° East  Level FlightAware Approximate